Time;durP1;ratioP1;P1;durP2;ratioP2;P2;SDS_P1;SDS_P2;PMS_P1;PMS_P2;Temp;Humidity;BMP_temperature;BMP_pressure;BME280_temperature;BME280_humidity;BME280_pressure;Samples;Min_cycle;Max_cycle;Signal;HPM_P1;HPM_P2
2021/12/18 00:03:53;;;;;;;1.23;0.80;;;16.20;90.10;;;;;;10500323;28;20052;-65
2021/12/18 00:08:54;;;;;;;0.90;0.80;;;16.20;90.10;;;;;;10500738;28;20051;-65
2021/12/18 00:13:56;;;;;;;0.77;0.60;;;16.20;90.10;;;;;;10500699;28;20053;-65
2021/12/18 00:18:58;;;;;;;1.00;0.88;;;16.20;90.10;;;;;;10500442;28;20239;-65
2021/12/18 00:24:00;;;;;;;1.00;0.80;;;16.20;90.10;;;;;;10500140;28;20049;-65
2021/12/18 00:29:01;;;;;;;1.20;0.88;;;16.10;90.10;;;;;;10500100;28;20052;-65
2021/12/18 00:34:02;;;;;;;1.33;0.85;;;16.10;90.10;;;;;;10499431;28;20134;-65
2021/12/18 00:39:04;;;;;;;1.33;0.90;;;16.10;90.10;;;;;;10499792;28;20064;-65
2021/12/18 00:44:05;;;;;;;1.38;1.05;;;16.10;90.10;;;;;;10499569;28;20060;-65
2021/12/18 00:49:07;;;;;;;1.25;1.02;;;16.10;90.10;;;;;;10499402;28;20051;-65
2021/12/18 00:54:08;;;;;;;1.00;0.90;;;16.00;90.10;;;;;;10498966;28;20048;-65
2021/12/18 00:59:10;;;;;;;1.83;1.40;;;16.00;90.10;;;;;;10498531;28;20048;-65
2021/12/18 01:04:11;;;;;;;1.60;1.20;;;16.00;90.10;;;;;;10498246;28;20412;-65
2021/12/18 01:09:13;;;;;;;1.40;1.20;;;16.00;90.10;;;;;;10498364;28;20067;-65
2021/12/18 01:14:40;;;;;;;1.80;1.20;;;16.00;90.10;;;;;;10498172;28;20048;-65
2021/12/18 01:25:01;;;;;;;1.40;1.20;;;16.00;90.10;;;;;;10497717;28;20142;-65
2021/12/18 01:30:02;;;;;;;1.48;1.10;;;15.90;90.10;;;;;;10497341;28;20041;-65
2021/12/18 01:35:04;;;;;;;1.90;1.50;;;15.90;90.20;;;;;;10497496;28;20056;-65
2021/12/18 01:40:05;;;;;;;1.48;1.20;;;15.90;90.10;;;;;;10497242;28;20044;-65
2021/12/18 01:45:13;;;;;;;1.85;1.20;;;15.90;90.20;;;;;;10497368;28;20049;-65
2021/12/18 01:55:33;;;;;;;1.70;1.50;;;15.80;90.20;;;;;;10496473;28;20044;-65
2021/12/18 02:00:35;;;;;;;1.80;1.48;;;15.90;90.20;;;;;;10496112;28;20044;-65
2021/12/18 02:05:37;;;;;;;1.90;1.40;;;15.80;90.20;;;;;;10496463;28;20044;-65
2021/12/18 02:10:46;;;;;;;1.88;1.35;;;15.80;90.20;;;;;;10495892;28;20474;-65
2021/12/18 02:21:12;;;;;;;1.60;1.40;;;15.80;90.20;;;;;;10494808;28;20078;-65
2021/12/18 02:26:14;;;;;;;2.17;1.50;;;15.80;90.20;;;;;;10495749;28;20056;-65
2021/12/18 02:31:15;;;;;;;1.70;1.52;;;15.80;90.20;;;;;;10495533;28;20041;-65
2021/12/18 02:36:22;;;;;;;1.65;1.48;;;15.80;90.20;;;;;;10495440;28;20053;-65
2021/12/18 02:41:29;;;;;;;1.95;1.50;;;15.70;90.20;;;;;;10495256;28;20132;-65
2021/12/18 02:46:30;;;;;;;;;;;15.70;90.20;;;;;;10495726;28;20045;-65
2021/12/18 02:51:32;;;;;;;2.00;1.40;;;15.70;90.10;;;;;;10495686;28;19920;-65
2021/12/18 02:56:33;;;;;;;1.90;1.60;;;15.70;90.20;;;;;;10495041;28;20056;-65
2021/12/18 03:01:35;;;;;;;2.00;1.50;;;15.70;90.20;;;;;;10494710;28;20048;-66
2021/12/18 03:06:40;;;;;;;2.00;1.30;;;15.70;90.30;;;;;;10495127;28;20045;-65
2021/12/18 03:27:35;;;;;;;1.63;1.52;;;15.60;90.20;;;;;;10494544;28;20032;-65
2021/12/18 03:32:36;;;;;;;1.77;1.48;;;15.60;90.30;;;;;;10497483;28;20115;-65
2021/12/18 03:37:38;;;;;;;2.00;1.50;;;15.60;90.30;;;;;;10501788;28;20525;-65
2021/12/18 03:42:39;;;;;;;1.48;1.25;;;15.60;90.30;;;;;;10501883;28;20052;-65
2021/12/18 03:47:41;;;;;;;1.70;1.33;;;15.60;90.30;;;;;;10501989;28;20051;-65
2021/12/18 03:52:42;;;;;;;1.90;1.70;;;15.50;90.30;;;;;;10501502;28;20056;-65
2021/12/18 03:57:44;;;;;;;1.63;1.33;;;15.50;90.30;;;;;;10501081;28;20059;-65
2021/12/18 04:02:45;;;;;;;1.60;1.40;;;15.50;90.30;;;;;;10500685;28;20071;-65
2021/12/18 04:07:49;;;;;;;1.95;1.70;;;15.50;90.30;;;;;;10500771;28;20051;-65
2021/12/18 04:12:58;;;;;;;2.13;1.48;;;15.50;90.30;;;;;;10500612;28;20047;-65
2021/12/18 04:18:00;;;;;;;1.92;1.65;;;15.50;90.30;;;;;;10500554;28;20044;-65
2021/12/18 04:23:01;;;;;;;2.20;1.70;;;15.50;90.30;;;;;;10500050;28;20477;-65
2021/12/18 04:28:03;;;;;;;1.98;1.60;;;15.40;90.30;;;;;;10500201;28;20048;-65
2021/12/18 04:33:04;;;;;;;1.50;1.30;;;15.40;90.30;;;;;;10499662;28;20053;-65
2021/12/18 04:38:06;;;;;;;1.42;1.33;;;15.40;90.30;;;;;;10499679;28;20048;-65
2021/12/18 04:43:07;;;;;;;1.60;1.40;;;15.40;90.30;;;;;;10498418;28;20106;-65
2021/12/18 04:48:09;;;;;;;1.95;1.30;;;15.40;90.40;;;;;;10499273;28;20447;-65
2021/12/18 04:53:10;;;;;;;1.67;1.42;;;15.40;90.40;;;;;;10499107;28;20489;-66
2021/12/18 04:58:12;;;;;;;1.60;1.30;;;15.40;90.40;;;;;;10498624;28;20057;-65
2021/12/18 05:03:14;;;;;;;1.65;1.25;;;15.40;90.40;;;;;;10497995;28;20056;-65
2021/12/18 05:08:15;;;;;;;1.70;1.48;;;15.30;90.40;;;;;;10498326;28;20046;-65
2021/12/18 05:13:17;;;;;;;1.30;1.10;;;15.30;90.40;;;;;;10498204;28;20041;-65
2021/12/18 05:18:18;;;;;;;1.55;1.13;;;15.30;90.40;;;;;;10497971;28;20048;-65
2021/12/18 05:23:20;;;;;;;1.60;1.40;;;15.30;90.40;;;;;;10497372;28;20055;-65
2021/12/18 05:28:21;;;;;;;1.75;1.48;;;15.30;90.40;;;;;;10497722;28;20059;-65
2021/12/18 05:33:23;;;;;;;1.65;1.30;;;15.30;90.40;;;;;;10497013;28;20045;-65
2021/12/18 05:38:24;;;;;;;1.40;1.30;;;15.30;90.40;;;;;;10496887;28;20049;-65
2021/12/18 05:43:26;;;;;;;1.92;1.65;;;15.30;90.40;;;;;;10497025;28;20041;-65
2021/12/18 05:48:27;;;;;;;1.40;1.17;;;15.20;90.40;;;;;;10496563;28;20044;-66
2021/12/18 05:53:29;;;;;;;1.30;1.08;;;15.20;90.40;;;;;;10496345;28;20055;-66
2021/12/18 05:58:30;;;;;;;1.55;1.20;;;15.20;90.40;;;;;;10496067;28;20460;-66
2021/12/18 06:03:31;;;;;;;1.38;1.00;;;15.20;90.40;;;;;;10496037;28;20061;-66
2021/12/18 06:08:35;;;;;;;1.40;1.05;;;15.20;90.40;;;;;;10495953;28;20040;-66
2021/12/18 06:13:36;;;;;;;1.60;1.48;;;15.20;90.40;;;;;;10495911;28;20036;-66
2021/12/18 06:18:40;;;;;;;1.27;1.10;;;15.20;90.40;;;;;;10495532;28;20728;-66
2021/12/18 06:23:41;;;;;;;1.63;1.10;;;15.10;90.40;;;;;;10495434;28;20060;-66
2021/12/18 06:28:43;;;;;;;1.55;1.10;;;15.10;90.40;;;;;;10495571;28;20052;-65
2021/12/18 06:33:44;;;;;;;1.30;1.20;;;15.10;90.40;;;;;;10495233;28;20052;-66
2021/12/18 06:38:46;;;;;;;1.13;0.88;;;15.10;90.40;;;;;;10495226;28;20045;-66
2021/12/18 06:43:47;;;;;;;1.30;1.20;;;15.10;90.40;;;;;;10495107;28;20036;-66
2021/12/18 06:48:48;;;;;;;1.60;1.20;;;15.10;90.40;;;;;;10495121;28;20134;-65
2021/12/18 06:53:50;;;;;;;1.20;0.90;;;15.10;90.40;;;;;;10495133;28;20110;-66
2021/12/18 06:58:51;;;;;;;1.10;0.90;;;15.10;90.50;;;;;;10494519;28;20056;-66
2021/12/18 07:03:53;;;;;;;1.10;0.90;;;15.10;90.50;;;;;;10494631;28;20053;-66
2021/12/18 07:08:54;;;;;;;1.02;0.93;;;15.10;90.50;;;;;;10500752;28;20048;-66
2021/12/18 07:13:56;;;;;;;1.00;0.73;;;15.00;90.50;;;;;;10502860;28;20051;-66
2021/12/18 07:18:57;;;;;;;1.17;0.93;;;15.00;90.50;;;;;;10502616;28;20056;-66
2021/12/18 07:23:59;;;;;;;0.90;0.82;;;15.00;90.50;;;;;;10502305;28;20102;-66
2021/12/18 07:29:00;;;;;;;1.10;0.98;;;15.00;90.50;;;;;;10502157;28;20558;-65
2021/12/18 07:34:02;;;;;;;1.05;0.90;;;15.00;90.50;;;;;;10501966;28;20044;-66
2021/12/18 07:39:03;;;;;;;1.02;0.80;;;15.00;90.70;;;;;;10501613;28;20056;-65
2021/12/18 07:44:06;;;;;;;1.08;0.90;;;15.00;90.50;;;;;;10501653;28;20060;-66
2021/12/18 07:49:08;;;;;;;1.00;0.77;;;15.00;90.50;;;;;;10501493;28;20100;-66
2021/12/18 07:54:09;;;;;;;1.15;0.90;;;15.00;90.50;;;;;;10501237;28;20044;-65
2021/12/18 07:59:11;;;;;;;0.73;0.73;;;15.00;90.50;;;;;;10500857;28;20060;-66
2021/12/18 08:04:12;;;;;;;1.20;0.80;;;14.90;90.50;;;;;;10500530;28;20102;-66
2021/12/18 08:09:13;;;;;;;0.80;0.80;;;14.90;90.50;;;;;;10500683;28;20074;-65
2021/12/18 08:14:15;;;;;;;1.45;0.77;;;14.90;90.50;;;;;;10500665;28;20040;-66
2021/12/18 08:19:16;;;;;;;0.73;0.70;;;14.90;90.50;;;;;;10499009;28;20090;-65
2021/12/18 08:24:18;;;;;;;0.80;0.70;;;14.90;90.50;;;;;;10500267;28;20048;-66
2021/12/18 08:29:19;;;;;;;1.25;0.98;;;14.90;90.50;;;;;;10500111;28;20044;-66
2021/12/18 08:34:21;;;;;;;1.13;0.77;;;14.90;90.50;;;;;;10499529;28;20059;-66
2021/12/18 08:39:22;;;;;;;0.80;0.77;;;14.90;90.50;;;;;;10499451;28;20059;-66
2021/12/18 08:44:24;;;;;;;1.17;0.65;;;14.80;90.50;;;;;;10499555;28;20052;-66
2021/12/18 08:49:25;;;;;;;1.23;0.80;;;14.80;90.50;;;;;;10499245;28;20048;-66
2021/12/18 08:54:27;;;;;;;1.00;0.70;;;14.80;90.50;;;;;;10498939;28;20160;-65
2021/12/18 08:59:28;;;;;;;0.93;0.70;;;14.80;90.50;;;;;;10498539;28;20374;-66
2021/12/18 09:04:30;;;;;;;0.80;0.70;;;14.80;90.50;;;;;;10498131;28;20075;-66
2021/12/18 09:09:31;;;;;;;0.82;0.60;;;14.80;90.50;;;;;;10498276;28;20052;-66
2021/12/18 09:14:33;;;;;;;0.80;0.68;;;14.80;90.50;;;;;;10498070;28;20106;-66
2021/12/18 09:19:34;;;;;;;0.60;0.57;;;14.80;90.50;;;;;;10497656;28;20386;-65
2021/12/18 09:24:36;;;;;;;0.63;0.63;;;14.80;90.50;;;;;;10497507;28;20485;-66
2021/12/18 09:29:37;;;;;;;0.90;0.60;;;14.80;90.50;;;;;;10497147;28;20056;-66
2021/12/18 09:34:39;;;;;;;1.23;0.63;;;14.80;90.50;;;;;;10496861;28;20513;-66
2021/12/18 09:39:40;;;;;;;0.63;0.60;;;14.80;90.50;;;;;;10496955;28;20394;-66
2021/12/18 09:44:42;;;;;;;0.77;0.52;;;14.80;90.50;;;;;;10496787;28;20451;-66
2021/12/18 09:49:43;;;;;;;0.70;0.60;;;14.80;90.50;;;;;;10496588;28;20413;-66
2021/12/18 09:54:45;;;;;;;0.85;0.68;;;14.80;90.50;;;;;;10497050;28;20052;-66
2021/12/18 09:59:46;;;;;;;0.73;0.60;;;14.80;90.50;;;;;;10496690;28;20044;-66
2021/12/18 10:04:47;;;;;;;0.77;0.70;;;14.80;90.50;;;;;;10495876;28;20052;-66
2021/12/18 10:09:49;;;;;;;0.68;0.60;;;14.80;90.50;;;;;;10496040;28;20500;-66
2021/12/18 10:14:50;;;;;;;1.23;0.77;;;14.70;90.50;;;;;;10495807;28;20048;-66
2021/12/18 10:19:53;;;;;;;1.13;0.50;;;14.80;90.50;;;;;;10495468;28;20460;-66
2021/12/18 10:24:55;;;;;;;1.17;0.50;;;14.80;90.50;;;;;;10495652;28;20055;-66
2021/12/18 10:29:56;;;;;;;1.10;0.70;;;14.70;90.50;;;;;;10495602;28;20044;-66
2021/12/18 10:34:59;;;;;;;0.80;0.60;;;14.80;90.50;;;;;;10495686;28;20044;-66
2021/12/18 10:40:00;;;;;;;1.05;0.63;;;14.70;90.50;;;;;;10494985;28;20095;-66
2021/12/18 10:45:02;;;;;;;0.63;0.60;;;14.70;90.50;;;;;;10495017;28;20056;-66
2021/12/18 10:50:03;;;;;;;0.80;0.60;;;14.70;90.50;;;;;;10495248;28;20053;-66
2021/12/18 10:55:04;;;;;;;0.75;0.60;;;14.70;90.50;;;;;;10495318;28;20053;-66
2021/12/18 11:00:06;;;;;;;1.23;0.60;;;14.80;90.50;;;;;;10494557;28;20052;-66
2021/12/18 11:05:07;;;;;;;0.85;0.50;;;14.70;90.50;;;;;;10494637;28;20053;-66
2021/12/18 11:10:14;;;;;;;0.60;0.50;;;14.70;90.50;;;;;;10494852;28;20044;-66
2021/12/18 11:15:15;;;;;;;1.65;0.57;;;14.70;90.50;;;;;;10494471;28;20059;-66
2021/12/18 11:20:16;;;;;;;0.57;0.57;;;14.70;90.50;;;;;;10494596;28;20045;-66
2021/12/18 11:25:18;;;;;;;1.13;0.50;;;14.70;90.50;;;;;;10494255;28;20040;-66
2021/12/18 11:30:19;;;;;;;1.08;0.50;;;14.70;90.50;;;;;;10494305;28;20051;-66
2021/12/18 11:35:21;;;;;;;1.35;0.60;;;14.70;90.40;;;;;;10494280;28;20048;-66
2021/12/18 11:40:22;;;;;;;1.10;0.55;;;14.70;90.50;;;;;;10494208;28;20053;-67
2021/12/18 11:45:24;;;;;;;0.80;0.63;;;14.70;90.50;;;;;;10494274;28;20051;-66
2021/12/18 11:50:26;;;;;;;0.90;0.55;;;14.70;90.50;;;;;;10494076;28;20044;-66
2021/12/18 11:55:28;;;;;;;1.10;0.60;;;14.70;90.40;;;;;;10499784;28;20078;-66
2021/12/18 12:00:29;;;;;;;0.60;0.50;;;14.70;90.50;;;;;;10500861;28;20048;-66
2021/12/18 12:05:31;;;;;;;1.00;0.50;;;14.70;90.50;;;;;;10500796;28;20059;-66
2021/12/18 12:10:47;;;;;;;1.10;0.50;;;14.70;90.50;;;;;;10500961;28;20053;-66
2021/12/18 12:15:49;;;;;;;0.70;0.50;;;14.70;90.50;;;;;;10500416;28;20052;-66
2021/12/18 12:20:51;;;;;;;0.85;0.50;;;14.70;90.50;;;;;;10500321;28;20045;-66
2021/12/18 12:25:53;;;;;;;1.63;0.70;;;14.70;90.40;;;;;;10500193;28;20139;-66
2021/12/18 12:30:55;;;;;;;2.10;0.60;;;14.70;90.40;;;;;;10499573;28;20051;-66
2021/12/18 12:35:56;;;;;;;1.10;0.60;;;14.60;90.40;;;;;;10499530;28;20059;-66
2021/12/18 12:40:58;;;;;;;1.95;0.70;;;14.70;90.50;;;;;;10499612;28;20045;-66
2021/12/18 12:46:05;;;;;;;1.15;0.38;;;14.70;90.40;;;;;;10499480;28;20041;-66
2021/12/18 12:51:06;;;;;;;1.30;0.60;;;14.60;90.40;;;;;;10499160;28;20052;-66
2021/12/18 12:56:08;;;;;;;1.38;0.60;;;14.70;90.40;;;;;;10499136;28;20052;-66
2021/12/18 13:01:09;;;;;;;1.40;0.63;;;14.60;90.40;;;;;;10498460;28;20041;-66
2021/12/18 13:06:11;;;;;;;1.63;0.75;;;14.60;90.40;;;;;;10497505;28;20063;-66
2021/12/18 13:11:12;;;;;;;1.65;0.70;;;14.60;90.40;;;;;;10498191;28;20106;-66
2021/12/18 13:16:14;;;;;;;1.38;0.70;;;14.70;90.50;;;;;;10497789;28;20059;-66
2021/12/18 13:21:15;;;;;;;1.25;0.52;;;14.60;90.50;;;;;;10497387;28;20048;-66
2021/12/18 13:26:17;;;;;;;1.00;0.40;;;14.60;90.50;;;;;;10497487;28;20049;-66
2021/12/18 13:31:18;;;;;;;1.08;0.60;;;14.60;90.50;;;;;;10496847;28;20056;-67
2021/12/18 13:36:20;;;;;;;1.33;0.70;;;14.60;90.50;;;;;;10497357;28;20068;-66
2021/12/18 13:41:21;;;;;;;1.38;0.68;;;14.60;90.50;;;;;;10496982;28;20048;-66
2021/12/18 13:46:23;;;;;;;0.70;0.50;;;14.60;90.50;;;;;;10496838;28;20056;-66
2021/12/18 13:51:25;;;;;;;1.05;0.70;;;14.60;90.50;;;;;;10496607;28;20053;-67
2021/12/18 13:56:27;;;;;;;1.52;0.68;;;14.60;90.50;;;;;;10496516;28;20097;-66
2021/12/18 14:01:28;;;;;;;1.92;0.70;;;14.60;90.50;;;;;;10495964;28;20049;-66
2021/12/18 14:06:32;;;;;;;1.77;0.80;;;14.60;90.50;;;;;;10495686;28;20121;-66
2021/12/18 14:11:36;;;;;;;0.82;0.60;;;14.50;90.50;;;;;;10495879;28;20056;-66
2021/12/18 14:16:38;;;;;;;1.70;0.70;;;14.50;90.50;;;;;;10495712;28;20102;-66
2021/12/18 14:21:39;;;;;;;0.80;0.60;;;14.50;90.60;;;;;;10495639;28;20041;-66
2021/12/18 14:26:41;;;;;;;1.98;0.50;;;14.50;90.50;;;;;;10495458;28;20075;-66
2021/12/18 14:31:42;;;;;;;1.15;0.68;;;14.50;90.60;;;;;;10495253;28;20052;-66
2021/12/18 14:36:44;;;;;;;1.55;0.65;;;14.50;90.50;;;;;;10495297;28;20067;-66
2021/12/18 14:41:45;;;;;;;1.83;0.70;;;14.50;90.60;;;;;;10495079;28;20045;-66
2021/12/18 14:46:46;;;;;;;1.75;0.82;;;14.50;90.60;;;;;;10495028;28;20041;-66
2021/12/18 14:51:48;;;;;;;1.08;0.68;;;14.50;90.60;;;;;;10494917;28;20090;-66
2021/12/18 14:56:49;;;;;;;1.42;0.65;;;14.50;90.60;;;;;;10494590;28;20052;-66
2021/12/18 15:01:51;;;;;;;1.25;0.70;;;14.40;90.60;;;;;;10494753;28;20055;-66
2021/12/18 15:06:52;;;;;;;2.22;0.82;;;14.40;90.60;;;;;;10494467;28;20535;-66
2021/12/18 15:11:54;;;;;;;1.70;0.90;;;14.50;90.90;;;;;;10494388;28;20508;-66
2021/12/18 15:16:55;;;;;;;1.52;0.80;;;14.40;90.60;;;;;;10494284;28;20056;-66
2021/12/18 15:21:57;;;;;;;1.92;0.80;;;14.40;90.60;;;;;;10494373;28;20045;-66
2021/12/18 15:26:59;;;;;;;2.72;0.90;;;14.40;90.60;;;;;;10495169;28;20060;-66
2021/12/18 15:32:01;;;;;;;1.65;0.80;;;14.40;90.60;;;;;;10501692;28;20110;-66
2021/12/18 15:37:02;;;;;;;1.23;0.68;;;14.40;90.60;;;;;;10501612;28;20394;-66
2021/12/18 15:42:04;;;;;;;1.17;0.70;;;14.40;90.60;;;;;;10501738;28;20477;-66
2021/12/18 15:47:05;;;;;;;1.50;0.90;;;14.40;90.60;;;;;;10501360;28;20044;-66
2021/12/18 15:52:07;;;;;;;2.60;1.17;;;14.40;90.60;;;;;;10501306;28;20048;-66
2021/12/18 15:57:08;;;;;;;1.98;0.90;;;14.30;90.60;;;;;;10500772;28;20056;-66
2021/12/18 16:02:10;;;;;;;2.35;1.05;;;14.30;90.60;;;;;;10500386;28;20052;-66
2021/12/18 16:07:11;;;;;;;1.77;0.90;;;14.30;90.60;;;;;;10500852;28;20049;-66
2021/12/18 16:12:13;;;;;;;3.22;1.08;;;14.30;90.60;;;;;;10500701;28;20044;-66
2021/12/18 16:17:14;;;;;;;1.83;1.00;;;14.30;90.60;;;;;;10500295;28;20052;-66
2021/12/18 16:22:16;;;;;;;1.83;0.90;;;14.30;90.60;;;;;;10500131;28;20056;-66
2021/12/18 16:27:17;;;;;;;1.80;0.98;;;14.30;90.70;;;;;;10499882;28;20049;-67
2021/12/18 16:32:19;;;;;;;1.90;0.82;;;14.30;90.70;;;;;;10499445;28;20044;-66
2021/12/18 16:37:28;;;;;;;1.70;0.98;;;14.30;90.70;;;;;;10499446;28;20443;-66
2021/12/18 16:42:29;;;;;;;2.22;1.00;;;14.30;90.70;;;;;;10498239;28;20076;-66
2021/12/18 16:47:31;;;;;;;1.50;1.00;;;14.30;90.70;;;;;;10499188;28;20130;-66
2021/12/18 16:52:32;;;;;;;2.22;1.10;;;14.30;90.70;;;;;;10498916;28;20051;-66
2021/12/18 16:57:34;;;;;;;1.77;1.00;;;14.20;90.70;;;;;;10498904;28;20056;-66
2021/12/18 17:02:35;;;;;;;2.15;0.90;;;14.30;90.70;;;;;;10498136;28;20088;-66
2021/12/18 17:07:37;;;;;;;3.15;0.85;;;14.20;90.70;;;;;;10498350;28;20044;-66
2021/12/18 17:12:39;;;;;;;2.25;1.10;;;14.20;90.70;;;;;;10498286;28;20045;-66
2021/12/18 17:17:40;;;;;;;2.38;1.00;;;14.20;90.70;;;;;;10497840;28;20544;-66
2021/12/18 17:22:42;;;;;;;1.92;1.20;;;14.20;90.70;;;;;;10497622;28;20417;-66
2021/12/18 17:27:44;;;;;;;1.55;1.00;;;14.20;90.70;;;;;;10497659;28;20099;-66
2021/12/18 17:32:45;;;;;;;1.52;0.82;;;14.20;90.70;;;;;;10497227;28;20044;-66
2021/12/18 17:37:47;;;;;;;1.58;1.00;;;14.10;90.70;;;;;;10496969;28;20052;-66
2021/12/18 17:42:49;;;;;;;1.67;1.08;;;14.20;90.70;;;;;;10496953;28;20409;-66
2021/12/18 17:47:51;;;;;;;2.33;1.10;;;14.20;90.70;;;;;;10497006;28;20055;-66
2021/12/18 17:52:53;;;;;;;1.67;0.90;;;14.20;90.70;;;;;;10496293;28;20083;-66
2021/12/18 17:57:54;;;;;;;1.25;1.00;;;14.10;90.70;;;;;;10496063;28;20079;-66
2021/12/18 18:02:56;;;;;;;1.75;0.93;;;14.10;90.70;;;;;;10495322;28;20071;-66
2021/12/18 18:07:57;;;;;;;2.47;1.23;;;14.10;90.70;;;;;;10496045;28;20071;-66
2021/12/18 18:12:59;;;;;;;1.30;0.85;;;14.10;90.70;;;;;;10495799;28;20044;-66
2021/12/18 18:18:00;;;;;;;1.75;1.05;;;14.20;90.80;;;;;;10495519;28;20461;-66
2021/12/18 18:23:02;;;;;;;1.65;1.10;;;14.10;90.70;;;;;;10495419;28;20044;-66
2021/12/18 18:28:03;;;;;;;1.92;1.10;;;14.10;90.70;;;;;;10495397;28;20048;-66
2021/12/18 18:33:05;;;;;;;1.63;0.85;;;14.10;90.70;;;;;;10495012;28;20040;-66
2021/12/18 18:38:06;;;;;;;1.95;1.20;;;14.10;90.80;;;;;;10495039;28;20044;-66
2021/12/18 18:43:10;;;;;;;2.38;1.10;;;14.10;90.80;;;;;;10495086;28;20443;-66
2021/12/18 18:48:24;;;;;;;1.92;0.90;;;14.10;90.80;;;;;;10495169;28;20055;-66
2021/12/18 18:53:25;;;;;;;1.58;1.00;;;14.10;90.80;;;;;;10494841;28;20540;-66
2021/12/18 18:58:27;;;;;;;1.88;0.93;;;14.10;90.80;;;;;;10494499;28;20402;-66
2021/12/18 19:03:29;;;;;;;1.42;0.80;;;14.00;90.80;;;;;;10497816;28;20056;-66
2021/12/18 19:08:30;;;;;;;1.27;0.82;;;14.00;90.80;;;;;;10503139;28;20405;-66
2021/12/18 19:13:32;;;;;;;2.45;1.02;;;14.00;90.80;;;;;;10502978;28;20404;-66
2021/12/18 19:18:41;;;;;;;1.42;0.90;;;14.00;90.80;;;;;;10502552;28;20060;-66
2021/12/18 19:23:42;;;;;;;1.30;0.95;;;14.00;90.80;;;;;;10502404;28;20588;-66
2021/12/18 19:28:44;;;;;;;1.40;0.80;;;14.00;90.80;;;;;;10502230;28;20489;-66
2021/12/18 19:33:45;;;;;;;1.20;0.90;;;14.00;90.80;;;;;;10501753;28;20396;-66
2021/12/18 19:38:47;;;;;;;2.00;1.00;;;14.00;90.80;;;;;;10501767;28;20493;-66
2021/12/18 19:43:48;;;;;;;1.67;0.82;;;14.00;90.90;;;;;;10501735;28;20044;-66
2021/12/18 19:48:50;;;;;;;1.45;0.95;;;14.00;90.80;;;;;;10501699;28;20044;-66
2021/12/18 19:53:51;;;;;;;0.98;0.88;;;14.00;90.80;;;;;;10501384;28;20044;-66
2021/12/18 19:58:54;;;;;;;1.25;0.77;;;14.00;90.90;;;;;;10500892;28;20044;-66
2021/12/18 20:09:14;;;;;;;1.00;0.70;;;14.00;90.90;;;;;;10500902;28;20108;-66
2021/12/18 20:14:17;;;;;;;1.25;0.73;;;14.00;90.90;;;;;;10500388;28;20110;-66
2021/12/18 20:19:18;;;;;;;1.63;0.80;;;13.90;90.80;;;;;;10500232;28;20048;-66
2021/12/18 20:24:21;;;;;;;1.23;0.90;;;13.90;90.80;;;;;;10500321;28;20051;-66
2021/12/18 20:29:23;;;;;;;0.90;0.80;;;14.00;90.90;;;;;;10500158;28;20048;-66
2021/12/18 20:34:25;;;;;;;1.38;1.00;;;13.90;90.80;;;;;;10499686;28;20045;-66
2021/12/18 20:39:27;;;;;;;1.50;0.73;;;13.90;90.80;;;;;;10499741;28;20060;-66
2021/12/18 20:44:29;;;;;;;1.75;0.70;;;13.90;90.80;;;;;;10499399;28;20054;-66
2021/12/18 20:49:31;;;;;;;1.67;0.90;;;13.90;90.80;;;;;;10499885;28;20048;-66
2021/12/18 20:54:32;;;;;;;1.17;0.80;;;13.90;90.80;;;;;;10499127;28;20052;-66
2021/12/18 20:59:34;;;;;;;1.65;0.90;;;13.90;90.80;;;;;;10498741;28;20048;-66
2021/12/18 21:04:35;;;;;;;1.30;0.90;;;13.90;90.90;;;;;;10498302;28;20060;-66
2021/12/18 21:09:37;;;;;;;2.00;0.85;;;13.90;90.80;;;;;;10498434;28;20048;-66
2021/12/18 21:14:38;;;;;;;1.30;0.88;;;13.90;90.90;;;;;;10498236;28;20045;-65
2021/12/18 21:19:40;;;;;;;0.95;0.80;;;13.90;90.90;;;;;;10497541;28;20070;-65
2021/12/18 21:24:41;;;;;;;0.95;0.65;;;13.80;90.80;;;;;;10497036;28;20041;-65
2021/12/18 21:29:43;;;;;;;1.25;0.80;;;13.90;90.90;;;;;;10497379;28;20051;-65
2021/12/18 21:40:03;;;;;;;1.17;0.70;;;13.80;90.90;;;;;;10497012;28;20084;-65
2021/12/18 21:45:05;;;;;;;1.05;0.65;;;13.80;90.80;;;;;;10497097;28;20052;-65
2021/12/18 21:50:06;;;;;;;1.40;0.80;;;13.80;90.80;;;;;;10496895;28;20044;-66
2021/12/18 21:55:08;;;;;;;0.82;0.70;;;13.80;90.90;;;;;;10496409;28;20048;-65
2021/12/18 22:00:09;;;;;;;1.50;0.90;;;13.80;90.90;;;;;;10496062;28;20049;-65
2021/12/18 22:05:11;;;;;;;1.00;0.63;;;13.80;90.90;;;;;;10495885;28;20090;-65
2021/12/18 22:10:12;;;;;;;1.23;0.80;;;13.80;90.90;;;;;;10496176;28;20044;-65
2021/12/18 22:15:14;;;;;;;1.30;0.68;;;13.80;90.90;;;;;;10495763;28;20114;-65
2021/12/18 22:20:15;;;;;;;0.70;0.70;;;13.80;90.90;;;;;;10495294;28;20075;-65
2021/12/18 22:25:17;;;;;;;0.80;0.60;;;13.70;90.90;;;;;;10495415;28;20505;-65
2021/12/18 22:30:18;;;;;;;1.80;0.77;;;13.70;90.90;;;;;;10495151;28;20044;-65
2021/12/18 22:35:20;;;;;;;0.98;0.65;;;13.70;90.90;;;;;;10495372;28;20055;-66
2021/12/18 22:40:21;;;;;;;1.90;0.90;;;13.80;90.90;;;;;;10494234;28;20106;-65
2021/12/18 22:45:23;;;;;;;1.80;0.80;;;13.70;90.90;;;;;;10494921;28;20102;-66
2021/12/18 22:50:24;;;;;;;1.33;0.75;;;13.70;90.90;;;;;;10494792;28;20113;-66
2021/12/18 22:55:26;;;;;;;1.55;0.80;;;13.70;90.90;;;;;;10494964;28;20527;-66
2021/12/18 23:00:27;;;;;;;1.10;0.80;;;13.70;90.90;;;;;;10494549;28;20508;-65
2021/12/18 23:05:29;;;;;;;1.38;0.70;;;13.70;90.90;;;;;;10494564;28;20497;-66
2021/12/18 23:10:30;;;;;;;0.95;0.80;;;13.70;90.90;;;;;;10494698;28;20049;-66
2021/12/18 23:15:40;;;;;;;1.02;0.63;;;13.70;90.90;;;;;;10494568;28;20102;-66
2021/12/18 23:20:41;;;;;;;1.33;0.75;;;13.70;90.90;;;;;;10494176;28;20536;-66
2021/12/18 23:25:43;;;;;;;2.15;0.73;;;13.70;90.90;;;;;;10494286;28;20485;-66
2021/12/18 23:30:44;;;;;;;1.90;0.80;;;13.70;90.90;;;;;;10493860;28;20111;-66
2021/12/18 23:35:46;;;;;;;1.13;0.63;;;13.70;90.90;;;;;;10494415;28;20497;-66
2021/12/18 23:40:47;;;;;;;1.15;0.80;;;13.60;90.90;;;;;;10494518;28;20056;-66
2021/12/18 23:51:07;;;;;;;1.10;0.60;;;13.60;90.90;;;;;;10499751;28;20040;-66
2021/12/18 23:56:09;;;;;;;0.80;0.70;;;13.60;90.90;;;;;;10501397;28;20052;-66
